Time;durP1;ratioP1;P1;durP2;ratioP2;P2;SDS_P1;SDS_P2;PMS_P1;PMS_P2;Temp;Humidity;BMP_temperature;BMP_pressure;BME280_temperature;BME280_humidity;BME280_pressure;Samples;Min_cycle;Max_cycle;Signal;HPM_P1;HPM_P2
2021/04/18 00:02:16;;;;;;;11.43;5.10;;;16.60;99.90;;;;;;4992115;28;20133;-68
2021/04/18 00:04:43;;;;;;;10.60;5.28;;;16.90;99.90;;;;;;4995615;28;20031;-68
2021/04/18 00:07:10;;;;;;;10.65;3.92;;;17.20;99.90;;;;;;4993982;28;20105;-68
2021/04/18 00:09:38;;;;;;;10.43;3.78;;;17.30;99.90;;;;;;4995513;28;20026;-68
2021/04/18 00:12:06;;;;;;;11.30;4.00;;;17.30;99.90;;;;;;4993355;28;20102;-69
2021/04/18 00:14:34;;;;;;;11.32;3.85;;;17.20;99.90;;;;;;4993336;28;20026;-68
2021/04/18 00:17:01;;;;;;;8.80;4.18;;;17.10;99.90;;;;;;4993532;28;20049;-69
2021/04/18 00:19:30;;;;;;;11.35;4.43;;;17.10;99.90;;;;;;4995535;28;20023;-69
2021/04/18 00:21:57;;;;;;;14.00;4.82;;;17.20;99.90;;;;;;4993360;28;20031;-68
2021/04/18 00:24:25;;;;;;;11.82;4.75;;;17.10;99.90;;;;;;4995377;28;20372;-68
2021/04/18 00:26:52;;;;;;;10.00;4.50;;;17.30;99.90;;;;;;4993297;28;20026;-68
2021/04/18 00:29:19;;;;;;;10.18;4.75;;;17.90;99.90;;;;;;4995550;28;20029;-68
2021/04/18 00:31:46;;;;;;;9.77;4.40;;;17.70;99.90;;;;;;4992418;28;20427;-68
2021/04/18 00:34:14;;;;;;;8.90;4.13;;;18.10;99.90;;;;;;4994888;28;20372;-68
2021/04/18 00:36:41;;;;;;;7.63;3.85;;;18.60;99.90;;;;;;4992359;28;20026;-66
2021/04/18 00:39:08;;;;;;;9.63;3.60;;;18.70;99.90;;;;;;4994337;28;20033;-66
2021/04/18 00:41:35;;;;;;;10.02;4.57;;;19.20;99.90;;;;;;4991515;28;20057;-67
2021/04/18 00:44:03;;;;;;;9.45;4.85;;;19.40;99.90;;;;;;4994772;28;20026;-66
2021/04/18 00:46:30;;;;;;;10.63;4.88;;;19.30;99.90;;;;;;4990948;28;20522;-67
2021/04/18 00:48:57;;;;;;;10.35;3.90;;;19.60;99.90;;;;;;4994362;28;20022;-67
2021/04/18 00:51:25;;;;;;;7.65;3.42;;;20.10;99.90;;;;;;4991025;28;20073;-66
2021/04/18 00:53:52;;;;;;;8.15;3.15;;;20.00;99.90;;;;;;4994361;28;20058;-67
2021/04/18 00:56:19;;;;;;;8.98;2.72;;;19.90;99.90;;;;;;4991143;28;20113;-66
2021/04/18 00:58:48;;;;;;;9.35;3.35;;;20.30;99.90;;;;;;4974918;28;20031;-68
2021/04/18 01:01:15;;;;;;;7.80;3.28;;;19.90;99.90;;;;;;4974623;28;20023;-68
2021/04/18 01:03:42;;;;;;;7.50;3.45;;;20.20;99.90;;;;;;4993944;28;20042;-66
2021/04/18 01:06:10;;;;;;;8.15;3.40;;;20.50;99.90;;;;;;4993821;28;20026;-68
2021/04/18 01:08:37;;;;;;;8.48;2.90;;;20.60;99.90;;;;;;4993491;28;20045;-68
2021/04/18 01:11:04;;;;;;;9.48;2.90;;;20.30;99.90;;;;;;4991878;28;20387;-68
2021/04/18 01:13:32;;;;;;;6.00;3.03;;;20.10;99.90;;;;;;4992748;28;20037;-67
2021/04/18 01:15:59;;;;;;;7.22;3.10;;;19.80;99.90;;;;;;4991422;28;20435;-68
2021/04/18 01:18:26;;;;;;;7.35;3.00;;;19.30;99.90;;;;;;4991974;28;20027;-68
2021/04/18 01:21:10;;;;;;;6.93;2.85;;;19.60;99.90;;;;;;4994164;28;20102;-68
2021/04/18 01:23:38;;;;;;;6.85;3.35;;;20.00;99.90;;;;;;4990974;28;20038;-68
2021/04/18 01:26:05;;;;;;;8.00;3.08;;;20.30;99.90;;;;;;4993441;28;20038;-66
2021/04/18 01:28:33;;;;;;;9.50;3.22;;;20.50;99.90;;;;;;4991809;28;20031;-68
2021/04/18 01:31:01;;;;;;;9.10;2.17;;;20.90;99.90;;;;;;4993969;28;20037;-67
2021/04/18 01:33:28;;;;;;;9.02;2.72;;;20.80;99.90;;;;;;4991900;28;20137;-67
2021/04/18 01:35:57;;;;;;;8.10;3.03;;;20.60;99.90;;;;;;4993789;28;20149;-67
2021/04/18 01:38:24;;;;;;;6.60;2.20;;;20.50;99.90;;;;;;4991442;28;20394;-67
2021/04/18 01:40:52;;;;;;;5.97;2.45;;;20.10;99.90;;;;;;4993500;28;20037;-67
2021/04/18 01:43:20;;;;;;;7.47;2.20;;;20.20;99.90;;;;;;4990097;28;20039;-67
2021/04/18 01:45:49;;;;;;;5.10;2.40;;;20.20;99.90;;;;;;4993565;28;20037;-67
2021/04/18 01:48:17;;;;;;;8.85;2.72;;;20.30;99.90;;;;;;4989969;28;20093;-68
2021/04/18 01:50:48;;;;;;;6.80;1.90;;;20.10;99.90;;;;;;4993587;28;20053;-67
2021/04/18 01:53:16;;;;;;;8.02;2.35;;;19.90;99.90;;;;;;4991507;28;20115;-68
2021/04/18 01:55:43;;;;;;;8.98;2.75;;;20.20;99.90;;;;;;4992117;28;20112;-68
2021/04/18 01:58:11;;;;;;;8.38;2.58;;;20.70;99.90;;;;;;4991296;28;20033;-68
2021/04/18 02:00:38;;;;;;;9.60;2.75;;;21.50;99.90;;;;;;4993533;28;20363;-67
2021/04/18 02:03:06;;;;;;;12.18;2.67;;;21.00;99.90;;;;;;4991755;28;20038;-67
2021/04/18 02:05:35;;;;;;;7.97;2.78;;;21.00;99.90;;;;;;4993344;28;20019;-67
2021/04/18 02:08:02;;;;;;;7.85;3.05;;;21.00;99.90;;;;;;4991264;28;20088;-67
2021/04/18 02:10:29;;;;;;;8.13;2.92;;;20.90;99.90;;;;;;4993250;28;20569;-67
2021/04/18 02:12:57;;;;;;;5.18;2.08;;;20.60;99.90;;;;;;4991173;28;20506;-67
2021/04/18 02:15:24;;;;;;;8.18;2.30;;;20.50;99.90;;;;;;4989775;28;20026;-67
2021/04/18 02:17:53;;;;;;;10.38;3.67;;;20.50;99.90;;;;;;4986608;28;20105;-67
2021/04/18 02:20:20;;;;;;;7.80;2.42;;;20.30;99.90;;;;;;4993078;28;20093;-68
2021/04/18 02:22:47;;;;;;;5.72;2.55;;;20.10;99.90;;;;;;4991287;28;20142;-67
2021/04/18 02:25:15;;;;;;;6.43;1.75;;;20.20;99.90;;;;;;4990717;28;20027;-67
2021/04/18 02:27:42;;;;;;;6.68;2.90;;;20.20;99.90;;;;;;4991119;28;20035;-68
2021/04/18 02:30:10;;;;;;;5.72;2.08;;;20.10;99.90;;;;;;4990830;28;20066;-67
2021/04/18 02:32:38;;;;;;;6.63;2.45;;;20.00;99.90;;;;;;4988819;28;20056;-67
2021/04/18 02:35:06;;;;;;;5.97;2.38;;;20.10;99.90;;;;;;4991645;28;20479;-67
2021/04/18 02:37:33;;;;;;;4.25;2.28;;;20.10;99.90;;;;;;4990360;28;20145;-67
2021/04/18 02:40:00;;;;;;;5.55;1.92;;;20.10;99.90;;;;;;4991683;28;20165;-67
2021/04/18 02:42:28;;;;;;;10.15;3.03;;;20.10;99.90;;;;;;4990812;28;20498;-67
2021/04/18 02:44:55;;;;;;;7.85;2.75;;;19.90;99.90;;;;;;4990887;28;20116;-67
2021/04/18 02:47:22;;;;;;;8.10;2.70;;;19.90;99.90;;;;;;4991039;28;20030;-67
2021/04/18 02:49:50;;;;;;;7.07;2.30;;;20.20;99.90;;;;;;4991632;28;20096;-67
2021/04/18 02:52:17;;;;;;;7.22;2.58;;;20.60;99.90;;;;;;4990439;28;20019;-67
2021/04/18 02:54:44;;;;;;;7.28;2.47;;;20.60;99.90;;;;;;4992538;28;20526;-67
2021/04/18 02:57:12;;;;;;;9.88;3.38;;;20.60;99.90;;;;;;4990571;28;20023;-67
2021/04/18 02:59:39;;;;;;;6.00;2.88;;;20.60;99.90;;;;;;4992770;28;20422;-67
2021/04/18 03:02:06;;;;;;;14.40;3.03;;;20.70;99.90;;;;;;4992380;28;20113;-67
2021/04/18 03:04:33;;;;;;;4.80;2.05;;;20.60;99.90;;;;;;4996431;28;20030;-67
2021/04/18 03:07:01;;;;;;;7.63;2.35;;;20.40;99.90;;;;;;4994871;28;20026;-68
2021/04/18 03:09:28;;;;;;;5.55;2.55;;;20.40;99.90;;;;;;4996489;28;20455;-68
2021/04/18 03:11:55;;;;;;;9.43;2.28;;;20.40;99.90;;;;;;4994408;28;20073;-67
2021/04/18 03:14:22;;;;;;;10.60;2.80;;;20.40;99.90;;;;;;4993318;28;20022;-67
2021/04/18 03:16:50;;;;;;;8.13;2.55;;;20.50;99.90;;;;;;4994425;28;20042;-67
2021/04/18 03:19:17;;;;;;;5.22;2.08;;;20.60;99.90;;;;;;4996161;28;20052;-67
2021/04/18 03:21:45;;;;;;;5.13;2.20;;;20.50;99.90;;;;;;4994259;28;20022;-67
2021/04/18 03:24:12;;;;;;;7.15;2.38;;;20.80;99.90;;;;;;4996353;28;20110;-67
2021/04/18 03:26:40;;;;;;;7.85;2.95;;;21.20;99.90;;;;;;4994232;28;20035;-68
2021/04/18 03:29:07;;;;;;;8.70;3.35;;;21.70;99.90;;;;;;4996100;28;20116;-67
2021/04/18 03:31:34;;;;;;;8.25;3.05;;;21.80;99.90;;;;;;4993499;28;20058;-68
2021/04/18 03:34:02;;;;;;;10.30;2.50;;;21.80;99.90;;;;;;4994913;28;20050;-67
2021/04/18 03:36:29;;;;;;;10.32;2.92;;;21.70;99.90;;;;;;4993950;28;20031;-68
2021/04/18 03:38:56;;;;;;;6.28;2.20;;;21.50;99.90;;;;;;4994905;28;20093;-67
2021/04/18 03:41:23;;;;;;;8.63;2.83;;;21.80;99.90;;;;;;4990912;28;20446;-67
2021/04/18 03:43:51;;;;;;;12.30;3.45;;;22.00;99.90;;;;;;4975221;28;20397;-67
2021/04/18 03:46:18;;;;;;;7.80;2.78;;;21.80;99.60;;;;;;4974702;28;20110;-67
2021/04/18 03:48:45;;;;;;;7.53;2.97;;;21.80;99.90;;;;;;4995677;28;20081;-67
2021/04/18 03:51:13;;;;;;;6.65;2.58;;;21.60;99.90;;;;;;4994532;28;20070;-67
2021/04/18 03:53:40;;;;;;;8.73;3.17;;;21.70;99.90;;;;;;4995310;28;20030;-68
2021/04/18 03:56:07;;;;;;;15.02;2.90;;;22.20;99.90;;;;;;4994584;28;20084;-68
2021/04/18 03:58:35;;;;;;;7.07;2.50;;;22.10;99.90;;;;;;4994495;28;20030;-67
2021/04/18 04:01:02;;;;;;;8.23;3.13;;;22.10;99.90;;;;;;4994188;28;20474;-68
2021/04/18 04:03:30;;;;;;;10.00;3.35;;;21.70;99.90;;;;;;4993388;28;20030;-67
2021/04/18 04:05:57;;;;;;;7.00;2.47;;;21.60;99.90;;;;;;4995486;28;20033;-67
2021/04/18 04:08:24;;;;;;;7.70;3.28;;;21.40;99.90;;;;;;4993249;28;20114;-68
2021/04/18 04:10:51;;;;;;;11.40;2.47;;;21.20;99.90;;;;;;4995740;28;20053;-67
2021/04/18 04:13:19;;;;;;;7.15;3.40;;;21.10;99.90;;;;;;4992065;28;20486;-67
2021/04/18 04:15:46;;;;;;;8.02;2.45;;;20.90;99.90;;;;;;4993153;28;20034;-67
2021/04/18 04:18:13;;;;;;;9.57;3.10;;;20.90;99.90;;;;;;4992239;28;20057;-67
2021/04/18 04:20:41;;;;;;;9.15;3.17;;;20.80;99.90;;;;;;4995444;28;20050;-67
2021/04/18 04:23:08;;;;;;;8.60;2.85;;;20.70;99.90;;;;;;4993207;28;20041;-67
2021/04/18 04:25:36;;;;;;;15.35;2.72;;;20.50;99.90;;;;;;4993846;28;20490;-67
2021/04/18 04:28:07;;;;;;;7.53;2.35;;;20.60;99.90;;;;;;4993126;28;20035;-67
2021/04/18 04:30:35;;;;;;;6.45;2.60;;;20.60;99.90;;;;;;4993295;28;20023;-67
2021/04/18 04:33:03;;;;;;;8.88;2.88;;;20.40;99.90;;;;;;4990549;28;20080;-67
2021/04/18 04:35:30;;;;;;;6.80;2.55;;;20.40;99.90;;;;;;4987474;28;20475;-67
2021/04/18 04:37:58;;;;;;;6.82;2.42;;;20.40;99.90;;;;;;4987293;28;20034;-67
2021/04/18 04:40:26;;;;;;;9.52;2.40;;;20.20;99.90;;;;;;4988960;28;20475;-67
2021/04/18 04:42:53;;;;;;;6.28;2.90;;;20.20;99.90;;;;;;4990181;28;20038;-67
2021/04/18 04:45:20;;;;;;;7.90;2.45;;;20.10;99.90;;;;;;4997841;28;20082;-67
2021/04/18 04:47:48;;;;;;;6.35;3.20;;;20.10;99.90;;;;;;4992224;28;20035;-67
2021/04/18 04:50:15;;;;;;;6.78;2.90;;;20.00;99.90;;;;;;4993734;28;20046;-66
2021/04/18 04:52:42;;;;;;;6.68;2.10;;;20.00;99.90;;;;;;4991672;28;20049;-66
2021/04/18 04:55:10;;;;;;;5.47;2.33;;;20.00;99.90;;;;;;4991852;28;20069;-67
2021/04/18 04:57:37;;;;;;;7.07;2.88;;;19.90;99.90;;;;;;4991925;28;20104;-66
2021/04/18 05:00:07;;;;;;;7.82;2.58;;;19.80;99.90;;;;;;4991929;28;20391;-67
2021/04/18 05:02:34;;;;;;;8.68;2.40;;;19.90;99.90;;;;;;4987023;28;20037;-66
2021/04/18 05:05:01;;;;;;;10.15;3.05;;;19.90;99.90;;;;;;4990402;28;20026;-66
2021/04/18 05:07:28;;;;;;;7.78;3.03;;;19.90;99.90;;;;;;4990356;28;20088;-67
2021/04/18 05:09:56;;;;;;;9.30;2.58;;;19.90;99.90;;;;;;4993855;28;20034;-67
2021/04/18 05:12:23;;;;;;;9.75;2.80;;;19.80;99.90;;;;;;4991444;28;20109;-67
2021/04/18 05:14:50;;;;;;;6.20;3.05;;;19.90;99.90;;;;;;4992239;28;20034;-67
2021/04/18 05:17:17;;;;;;;8.80;3.15;;;19.90;99.90;;;;;;4991333;28;20364;-67
2021/04/18 05:19:45;;;;;;;8.15;2.17;;;19.90;99.90;;;;;;4993616;28;20553;-67
2021/04/18 05:22:12;;;;;;;9.07;2.83;;;19.80;99.90;;;;;;4989447;28;20438;-67
2021/04/18 05:24:39;;;;;;;10.85;3.30;;;19.90;99.90;;;;;;4990869;28;20105;-67
2021/04/18 05:27:07;;;;;;;5.72;2.20;;;19.70;99.90;;;;;;4988560;28;20128;-67
2021/04/18 05:29:34;;;;;;;7.50;3.03;;;19.70;99.90;;;;;;4989157;28;20049;-67
2021/04/18 05:32:01;;;;;;;9.68;2.25;;;19.60;99.90;;;;;;4988988;28;20581;-67
2021/04/18 05:34:29;;;;;;;8.80;2.75;;;19.50;99.90;;;;;;4992423;28;20463;-67
2021/04/18 05:36:56;;;;;;;6.57;2.45;;;19.40;99.90;;;;;;4990109;28;20018;-67
2021/04/18 05:39:23;;;;;;;5.43;2.28;;;19.50;99.90;;;;;;4992385;28;20080;-67
2021/04/18 05:41:50;;;;;;;7.28;2.70;;;19.40;99.90;;;;;;4991272;28;20467;-67
2021/04/18 05:44:18;;;;;;;5.97;2.58;;;19.30;99.90;;;;;;4992446;28;20394;-67
2021/04/18 05:46:45;;;;;;;5.35;2.15;;;19.20;99.90;;;;;;4990912;28;20374;-67
2021/04/18 05:49:12;;;;;;;7.78;2.58;;;19.20;99.90;;;;;;4990272;28;20026;-67
2021/04/18 05:51:40;;;;;;;7.10;2.70;;;19.20;99.90;;;;;;4989223;28;20018;-67
2021/04/18 05:54:08;;;;;;;5.45;2.38;;;19.30;99.90;;;;;;4991621;28;20134;-68
2021/04/18 05:56:35;;;;;;;6.60;2.47;;;19.20;99.90;;;;;;4988956;28;20489;-67
2021/04/18 05:59:03;;;;;;;8.90;2.67;;;19.20;99.90;;;;;;4991182;28;20023;-67
2021/04/18 06:01:32;;;;;;;7.38;2.70;;;19.20;99.90;;;;;;4988659;28;20077;-67
2021/04/18 06:04:00;;;;;;;9.60;2.78;;;19.10;99.90;;;;;;4984328;28;20046;-66
2021/04/18 06:06:27;;;;;;;8.88;2.65;;;19.10;99.90;;;;;;4985936;28;20058;-67
2021/04/18 06:08:55;;;;;;;6.10;1.85;;;19.00;99.90;;;;;;4989353;28;20054;-67
2021/04/18 06:11:22;;;;;;;8.73;2.88;;;19.00;99.90;;;;;;4987032;28;20045;-67
2021/04/18 06:13:51;;;;;;;7.97;3.10;;;19.00;99.90;;;;;;5001858;28;20046;-67
2021/04/18 06:16:18;;;;;;;6.65;2.95;;;18.90;99.90;;;;;;4995332;28;20095;-67
2021/04/18 06:18:46;;;;;;;7.68;2.40;;;19.00;99.90;;;;;;4995038;28;20027;-67
2021/04/18 06:21:13;;;;;;;5.78;2.38;;;19.00;99.90;;;;;;4991187;28;20061;-67
2021/04/18 06:23:40;;;;;;;5.75;2.22;;;19.00;99.90;;;;;;4991574;28;20117;-67
2021/04/18 06:26:08;;;;;;;7.30;2.25;;;18.90;99.90;;;;;;4996176;28;20025;-67
2021/04/18 06:28:35;;;;;;;4.60;1.90;;;18.80;99.90;;;;;;4990501;28;20034;-67
2021/04/18 06:31:04;;;;;;;7.68;3.70;;;18.80;99.90;;;;;;4990394;28;20038;-66
2021/04/18 06:33:32;;;;;;;5.47;3.17;;;18.80;99.90;;;;;;4989107;28;20125;-66
2021/04/18 06:35:59;;;;;;;4.50;2.25;;;18.70;99.90;;;;;;4991524;28;20031;-67
2021/04/18 06:38:29;;;;;;;7.82;2.15;;;18.70;99.90;;;;;;4991443;28;20042;-67
2021/04/18 06:40:57;;;;;;;3.58;1.73;;;18.70;99.90;;;;;;4992029;28;20061;-66
2021/04/18 06:43:26;;;;;;;6.10;2.25;;;18.60;99.90;;;;;;4994384;28;20031;-67
2021/04/18 06:45:54;;;;;;;5.78;1.92;;;18.50;99.90;;;;;;4992850;28;20025;-67
2021/04/18 06:48:22;;;;;;;6.70;2.17;;;18.50;99.90;;;;;;4996503;28;20372;-67
2021/04/18 06:50:51;;;;;;;5.40;2.35;;;18.50;99.90;;;;;;4995987;28;20422;-67
2021/04/18 06:53:18;;;;;;;5.32;2.60;;;18.40;99.90;;;;;;4994082;28;20030;-67
2021/04/18 06:55:45;;;;;;;9.73;2.97;;;18.40;99.90;;;;;;4994772;28;20339;-67
2021/04/18 06:58:12;;;;;;;12.82;5.43;;;18.30;99.90;;;;;;4992704;28;20180;-67
2021/04/18 07:00:40;;;;;;;8.32;3.10;;;18.30;99.90;;;;;;4995254;28;20065;-67
2021/04/18 07:03:15;;;;;;;16.38;9.15;;;18.30;99.90;;;;;;4991345;28;20030;-67
2021/04/18 07:05:45;;;;;;;7.72;4.10;;;18.30;99.90;;;;;;4995036;28;20030;-67
2021/04/18 07:08:32;;;;;;;7.10;2.17;;;18.20;99.90;;;;;;4991869;28;20029;-67
2021/04/18 07:11:19;;;;;;;4.93;2.10;;;18.20;99.90;;;;;;4991135;28;20065;-67
2021/04/18 07:13:48;;;;;;;8.07;2.83;;;18.10;99.90;;;;;;4983609;28;20632;-67
2021/04/18 07:16:26;;;;;;;4.90;1.83;;;18.10;99.90;;;;;;4998902;28;20030;-67
2021/04/18 07:18:55;;;;;;;9.52;1.58;;;18.10;99.90;;;;;;4990169;28;20394;-67
2021/04/18 07:21:23;;;;;;;7.43;1.88;;;18.00;99.90;;;;;;4990936;28;20022;-67
2021/04/18 07:23:50;;;;;;;5.68;1.60;;;18.00;99.90;;;;;;4991316;28;20040;-67
2021/04/18 07:26:21;;;;;;;6.82;1.42;;;18.00;99.90;;;;;;4992216;28;20022;-66
2021/04/18 07:28:53;;;;;;;5.30;1.27;;;17.90;99.90;;;;;;4992100;28;20062;-67
2021/04/18 07:31:34;;;;;;;5.85;1.80;;;17.90;99.90;;;;;;4989183;28;20023;-67
2021/04/18 07:34:05;;;;;;;13.80;2.65;;;17.90;99.90;;;;;;4988597;28;20026;-67
2021/04/18 07:36:34;;;;;;;8.82;2.10;;;17.80;99.90;;;;;;4989807;28;20109;-67
2021/04/18 07:39:01;;;;;;;5.97;1.80;;;17.80;99.90;;;;;;4990592;28;20023;-67
2021/04/18 07:41:29;;;;;;;6.45;2.13;;;17.70;99.90;;;;;;4990268;28;20395;-67
2021/04/18 07:43:56;;;;;;;4.72;2.10;;;17.70;99.90;;;;;;4990711;28;20022;-67
2021/04/18 07:46:23;;;;;;;8.45;2.58;;;17.70;99.90;;;;;;4987749;28;20030;-67
2021/04/18 07:48:51;;;;;;;9.95;2.33;;;17.60;99.90;;;;;;4990653;28;20031;-67
2021/04/18 07:51:19;;;;;;;7.70;1.70;;;17.70;99.90;;;;;;4989350;28;20046;-67
2021/04/18 07:53:49;;;;;;;6.50;2.05;;;17.60;99.90;;;;;;4992113;28;20034;-67
2021/04/18 07:56:17;;;;;;;5.68;1.67;;;17.60;99.90;;;;;;4990108;28;20114;-67
2021/04/18 07:58:45;;;;;;;6.00;2.03;;;17.50;99.90;;;;;;4991285;28;20394;-68
2021/04/18 08:01:13;;;;;;;5.35;1.63;;;17.50;99.90;;;;;;4990434;28;20031;-68
2021/04/18 08:03:45;;;;;;;26.95;16.80;;;17.60;99.90;;;;;;4991415;28;20050;-68
2021/04/18 08:06:13;;;;;;;8.85;3.40;;;17.60;99.90;;;;;;4990546;28;20034;-68
2021/04/18 08:08:50;;;;;;;5.20;1.67;;;17.90;99.90;;;;;;4992833;28;20034;-68
2021/04/18 08:11:23;;;;;;;5.47;2.40;;;17.70;99.90;;;;;;4992952;28;20089;-69
2021/04/18 08:13:53;;;;;;;7.50;2.75;;;17.60;99.90;;;;;;4994333;28;20022;-68
2021/04/18 08:16:29;;;;;;;5.07;2.25;;;17.50;99.90;;;;;;4992834;28;20037;-67
2021/04/18 08:19:08;;;;;;;8.00;2.60;;;17.40;99.90;;;;;;4992427;28;20022;-68
2021/04/18 08:21:39;;;;;;;6.00;2.40;;;17.30;99.90;;;;;;4993567;28;20023;-68
2021/04/18 08:24:33;;;;;;;6.75;2.80;;;17.40;99.90;;;;;;4994931;28;20031;-68
2021/04/18 08:27:11;;;;;;;6.93;2.57;;;17.40;99.90;;;;;;4990247;28;20030;-68
2021/04/18 08:30:04;;;;;;;6.75;2.15;;;17.30;99.90;;;;;;4994915;28;20025;-68
2021/04/18 08:32:42;;;;;;;5.88;1.70;;;17.30;99.90;;;;;;4986622;28;20054;-69
2021/04/18 08:35:16;;;;;;;7.93;2.70;;;17.30;99.90;;;;;;4982352;28;20040;-68
2021/04/18 08:37:43;;;;;;;5.10;3.13;;;17.30;99.90;;;;;;4994049;28;20092;-68
2021/04/18 08:40:11;;;;;;;11.88;4.18;;;17.30;99.90;;;;;;4991347;28;20022;-68
2021/04/18 08:42:40;;;;;;;7.07;3.60;;;17.20;99.90;;;;;;4993802;28;20043;-68
2021/04/18 08:45:08;;;;;;;9.95;3.67;;;17.20;99.90;;;;;;4988541;28;20011;-68
2021/04/18 08:47:37;;;;;;;7.80;3.78;;;17.10;99.90;;;;;;4993237;28;20026;-69
2021/04/18 08:50:17;;;;;;;6.25;2.90;;;17.10;99.90;;;;;;4992519;28;20042;-68
2021/04/18 08:52:44;;;;;;;10.90;4.07;;;17.00;99.90;;;;;;4999002;28;20049;-68
2021/04/18 08:55:15;;;;;;;6.57;3.60;;;17.00;99.90;;;;;;4996731;28;20387;-68
2021/04/18 08:57:42;;;;;;;8.82;3.90;;;16.90;99.90;;;;;;4989352;28;20372;-68
2021/04/18 09:00:16;;;;;;;11.23;4.30;;;16.90;99.90;;;;;;4992693;28;20026;-69
2021/04/18 09:02:54;;;;;;;7.88;4.05;;;16.90;99.90;;;;;;4992147;28;20053;-68
2021/04/18 09:05:23;;;;;;;9.77;3.70;;;17.00;99.90;;;;;;4994963;28;20134;-68
2021/04/18 09:07:51;;;;;;;9.32;3.53;;;16.80;99.90;;;;;;4991800;28;20489;-68
2021/04/18 09:10:18;;;;;;;7.00;2.92;;;16.90;99.90;;;;;;4993256;28;20026;-69
2021/04/18 09:12:48;;;;;;;6.78;2.97;;;16.80;99.90;;;;;;4993387;28;20102;-68
2021/04/18 09:15:16;;;;;;;7.45;3.60;;;16.80;99.90;;;;;;4990774;28;20026;-69
2021/04/18 09:17:43;;;;;;;10.68;3.85;;;16.70;99.90;;;;;;4991676;28;20026;-68
2021/04/18 09:20:19;;;;;;;7.90;3.45;;;16.80;99.90;;;;;;4992372;28;20487;-69
2021/04/18 09:22:47;;;;;;;8.95;3.13;;;16.70;99.90;;;;;;4990794;28;20113;-68
2021/04/18 09:25:19;;;;;;;11.30;3.30;;;16.80;99.90;;;;;;4990211;28;20089;-68
2021/04/18 09:27:48;;;;;;;8.95;3.70;;;16.70;99.90;;;;;;4991020;28;20026;-68
2021/04/18 09:30:16;;;;;;;8.90;3.72;;;16.70;99.90;;;;;;4989857;28;20018;-68
2021/04/18 09:32:47;;;;;;;10.48;4.00;;;16.60;99.90;;;;;;4993325;28;20471;-68
2021/04/18 09:35:17;;;;;;;6.30;3.10;;;16.60;99.90;;;;;;4992661;28;20077;-68
2021/04/18 09:37:56;;;;;;;9.32;3.60;;;16.60;99.90;;;;;;4993093;28;20117;-68
2021/04/18 09:40:30;;;;;;;7.00;3.45;;;16.60;99.90;;;;;;4991656;28;20021;-68
2021/04/18 09:42:58;;;;;;;8.95;3.25;;;16.50;99.90;;;;;;4991371;28;20033;-68
2021/04/18 09:45:30;;;;;;;5.93;3.03;;;16.50;99.90;;;;;;4990420;28;20034;-68
2021/04/18 09:48:10;;;;;;;8.55;3.13;;;16.50;99.90;;;;;;4993231;28;20034;-67
2021/04/18 09:50:38;;;;;;;10.18;3.95;;;16.50;99.90;;;;;;4991030;28;20054;-67
2021/04/18 09:53:22;;;;;;;10.43;3.72;;;16.50;99.90;;;;;;4992395;28;20073;-67
2021/04/18 09:55:58;;;;;;;12.70;4.05;;;16.50;99.90;;;;;;4992722;28;20026;-67
2021/04/18 09:58:39;;;;;;;10.90;3.78;;;16.50;99.90;;;;;;4992745;28;20134;-68
2021/04/18 10:01:27;;;;;;;6.75;4.07;;;16.40;99.90;;;;;;4992017;28;20022;-68
2021/04/18 10:03:55;;;;;;;8.18;4.13;;;16.40;99.90;;;;;;4990049;28;20070;-68
2021/04/18 10:06:23;;;;;;;11.43;4.55;;;16.30;99.90;;;;;;4993220;28;20414;-68
2021/04/18 10:09:04;;;;;;;9.45;4.25;;;16.30;99.90;;;;;;4992712;28;20030;-68
2021/04/18 10:11:31;;;;;;;11.25;5.07;;;16.30;99.90;;;;;;4993186;28;20034;-68
2021/04/18 10:14:00;;;;;;;10.02;4.70;;;16.30;99.90;;;;;;4992338;28;20085;-68
2021/04/18 10:16:40;;;;;;;9.13;5.07;;;16.30;99.90;;;;;;4973626;28;20531;-69
2021/04/18 10:19:15;;;;;;;10.05;4.57;;;16.30;99.90;;;;;;4973603;28;20033;-68
2021/04/18 10:21:45;;;;;;;10.98;5.40;;;16.20;99.90;;;;;;4987829;28;20495;-68
2021/04/18 10:24:53;;;;;;;12.13;5.10;;;16.20;99.90;;;;;;4991903;28;20041;-68
2021/04/18 10:27:25;;;;;;;11.65;4.80;;;16.20;99.90;;;;;;4990594;28;20081;-68
2021/04/18 10:29:54;;;;;;;12.02;6.68;;;16.20;99.90;;;;;;4992894;28;20022;-67
2021/04/18 10:32:22;;;;;;;12.30;5.80;;;16.20;99.90;;;;;;4989863;28;20103;-69
2021/04/18 10:34:52;;;;;;;10.00;5.80;;;16.20;99.90;;;;;;4990581;28;20022;-69
2021/04/18 10:37:21;;;;;;;13.02;6.18;;;16.20;99.90;;;;;;4990296;28;20022;-68
2021/04/18 10:39:48;;;;;;;10.60;5.47;;;16.10;99.90;;;;;;4988609;28;20478;-68
2021/04/18 10:42:16;;;;;;;11.75;5.45;;;16.10;99.90;;;;;;4990990;28;20076;-69
2021/04/18 10:44:44;;;;;;;11.15;5.13;;;16.10;99.90;;;;;;4992424;28;20034;-68
2021/04/18 10:47:16;;;;;;;12.07;6.80;;;16.10;99.90;;;;;;4992322;28;20118;-69
2021/04/18 10:49:49;;;;;;;11.40;5.78;;;16.20;99.90;;;;;;4991670;28;20050;-68
2021/04/18 10:52:17;;;;;;;16.02;6.43;;;16.10;99.90;;;;;;4991366;28;20058;-68
2021/04/18 10:54:44;;;;;;;10.93;5.85;;;16.10;99.90;;;;;;5000009;28;20121;-68
2021/04/18 10:57:11;;;;;;;12.18;6.28;;;16.20;99.90;;;;;;4989966;28;20050;-68
2021/04/18 10:59:42;;;;;;;11.00;6.93;;;16.30;99.90;;;;;;4990969;28;20034;-68
2021/04/18 11:02:09;;;;;;;10.10;6.07;;;16.30;99.90;;;;;;4981684;28;20030;-68
2021/04/18 11:04:36;;;;;;;13.32;5.75;;;16.30;99.90;;;;;;4992180;28;20494;-69
2021/04/18 11:07:04;;;;;;;18.65;6.93;;;16.30;99.90;;;;;;4992018;28;20387;-68
2021/04/18 11:09:31;;;;;;;15.35;6.75;;;16.30;99.90;;;;;;4991870;28;20029;-68
2021/04/18 11:11:59;;;;;;;14.70;5.53;;;16.30;99.90;;;;;;4989820;28;20042;-68
2021/04/18 11:14:27;;;;;;;13.20;6.38;;;16.30;99.90;;;;;;4990748;28;20026;-68
2021/04/18 11:16:55;;;;;;;13.32;6.25;;;16.30;99.90;;;;;;4991871;28;20525;-68
2021/04/18 11:19:22;;;;;;;15.57;7.00;;;16.40;99.90;;;;;;4992441;28;20023;-69
2021/04/18 11:21:49;;;;;;;12.48;6.22;;;16.30;99.90;;;;;;4993056;28;20470;-68
2021/04/18 11:24:17;;;;;;;10.15;5.57;;;16.30;99.90;;;;;;4995614;28;20035;-69
2021/04/18 11:26:44;;;;;;;13.20;6.57;;;16.30;99.90;;;;;;4995445;28;20394;-69
2021/04/18 11:29:11;;;;;;;17.25;6.10;;;16.30;99.90;;;;;;4994646;28;20027;-69
2021/04/18 11:31:38;;;;;;;8.90;5.60;;;16.30;99.90;;;;;;5004637;28;20113;-69
2021/04/18 11:34:06;;;;;;;15.00;6.20;;;16.20;99.90;;;;;;4995430;28;20068;-69
2021/04/18 11:36:33;;;;;;;10.27;5.90;;;16.20;99.90;;;;;;4992704;28;20089;-68
2021/04/18 11:39:00;;;;;;;13.18;7.07;;;16.20;99.90;;;;;;4991778;28;20435;-69
2021/04/18 11:41:27;;;;;;;13.15;6.28;;;16.20;99.90;;;;;;4976375;28;20027;-68
2021/04/18 11:43:55;;;;;;;11.07;6.85;;;16.20;99.90;;;;;;4992704;28;20026;-68
2021/04/18 11:46:22;;;;;;;12.80;6.22;;;16.10;99.90;;;;;;4990667;28;20042;-68
2021/04/18 11:48:49;;;;;;;17.77;7.00;;;16.10;99.90;;;;;;4993918;28;20065;-69
2021/04/18 11:51:16;;;;;;;15.77;7.45;;;15.90;99.90;;;;;;4994827;28;20046;-68
2021/04/18 11:53:44;;;;;;;12.30;6.85;;;15.90;99.90;;;;;;4994474;28;20034;-68
2021/04/18 11:56:11;;;;;;;15.90;7.15;;;15.80;99.90;;;;;;4994877;28;20398;-67
2021/04/18 11:58:38;;;;;;;11.77;7.47;;;15.80;99.90;;;;;;4995082;28;20487;-68
2021/04/18 12:01:05;;;;;;;13.48;7.10;;;15.70;99.90;;;;;;4994325;28;20407;-67
2021/04/18 12:03:33;;;;;;;10.18;7.00;;;15.70;99.90;;;;;;5002492;28;20046;-68
2021/04/18 12:06:00;;;;;;;14.30;7.68;;;15.70;99.90;;;;;;4997876;28;20037;-67
2021/04/18 12:08:28;;;;;;;12.13;6.28;;;15.80;99.90;;;;;;4994821;28;20053;-68
2021/04/18 12:10:55;;;;;;;12.80;7.85;;;15.80;99.90;;;;;;4995256;28;20040;-68
2021/04/18 12:13:22;;;;;;;18.00;7.45;;;15.70;99.90;;;;;;4992538;28;20027;-68
2021/04/18 12:15:49;;;;;;;11.02;6.47;;;15.60;99.90;;;;;;4994974;28;20027;-68
2021/04/18 12:18:17;;;;;;;12.20;7.13;;;15.70;99.90;;;;;;4994567;28;20026;-68
2021/04/18 12:20:44;;;;;;;12.30;6.38;;;15.80;99.90;;;;;;4994467;28;20037;-68
2021/04/18 12:23:12;;;;;;;16.42;6.97;;;15.70;99.90;;;;;;4993176;28;20101;-68
2021/04/18 12:25:39;;;;;;;17.80;7.20;;;15.60;99.90;;;;;;4994414;28;20134;-68
2021/04/18 12:28:08;;;;;;;12.25;6.00;;;15.40;99.90;;;;;;4991989;28;20471;-68
2021/04/18 12:30:35;;;;;;;11.85;6.32;;;15.40;99.90;;;;;;4994157;28;20450;-68
2021/04/18 12:33:03;;;;;;;10.93;6.00;;;15.50;99.90;;;;;;4993738;28;20037;-68
2021/04/18 12:35:30;;;;;;;12.02;6.07;;;15.50;99.90;;;;;;4995054;28;20026;-68
2021/04/18 12:37:57;;;;;;;10.05;6.35;;;15.50;99.90;;;;;;4994646;28;20026;-68
2021/04/18 12:40:25;;;;;;;11.55;6.25;;;15.60;99.90;;;;;;4989775;28;20056;-69
2021/04/18 12:42:53;;;;;;;10.90;6.00;;;15.50;99.90;;;;;;4993373;28;20126;-68
2021/04/18 12:45:20;;;;;;;12.45;5.85;;;15.50;99.90;;;;;;4993552;28;20026;-68
2021/04/18 12:47:48;;;;;;;16.85;6.68;;;15.50;99.90;;;;;;4994191;28;20049;-69
2021/04/18 12:50:15;;;;;;;12.85;7.45;;;15.40;99.90;;;;;;4992626;28;20054;-68
2021/04/18 12:52:43;;;;;;;13.40;6.85;;;15.30;99.90;;;;;;4993849;28;20034;-68